createdAt,value
2023-03-21T00:01:54.061Z,16.07
2023-03-21T00:04:22.691Z,17.03
2023-03-21T00:06:51.294Z,16.97
2023-03-21T00:09:19.803Z,16.13
2023-03-21T00:11:49.557Z,17.00
2023-03-21T00:14:18.925Z,17.97
2023-03-21T00:16:50.534Z,17.53
2023-03-21T00:19:19.357Z,16.17
2023-03-21T00:22:05.930Z,16.87
2023-03-21T00:24:35.942Z,17.00
2023-03-21T00:27:30.304Z,16.83
2023-03-21T00:29:54.550Z,16.53
2023-03-21T00:32:23.261Z,17.23
2023-03-21T00:35:11.917Z,18.00
2023-03-21T00:37:40.737Z,16.60
2023-03-21T00:40:16.272Z,16.50
2023-03-21T00:42:49.573Z,18.70
2023-03-21T00:45:19.433Z,16.90
2023-03-21T00:47:47.992Z,17.47
2023-03-21T00:50:16.481Z,18.00
2023-03-21T00:52:45.037Z,17.17
2023-03-21T00:55:13.448Z,17.27
2023-03-21T00:57:43.758Z,17.30
2023-03-21T01:00:18.151Z,17.87
2023-03-21T01:03:02.620Z,15.57
2023-03-21T01:05:51.608Z,16.90
2023-03-21T01:08:27.979Z,16.73
2023-03-21T01:10:58.077Z,16.60
2023-03-21T01:13:26.874Z,16.00
2023-03-21T01:15:57.041Z,17.27
2023-03-21T01:18:27.296Z,16.50
2023-03-21T01:20:56.210Z,16.37
2023-03-21T01:23:24.693Z,16.33
2023-03-21T01:25:53.828Z,16.27
2023-03-21T01:28:22.358Z,14.57
2023-03-21T01:30:51.376Z,15.43
2023-03-21T01:33:21.383Z,15.53
2023-03-21T01:35:55.357Z,15.37
2023-03-21T01:38:31.928Z,15.87
2023-03-21T01:41:06.163Z,15.67
2023-03-21T01:43:37.524Z,14.03
2023-03-21T01:46:21.355Z,15.90
2023-03-21T01:48:52.401Z,15.53
2023-03-21T01:51:20.998Z,15.93
2023-03-21T01:53:49.404Z,15.87
2023-03-21T01:56:19.444Z,14.90
2023-03-21T01:58:47.856Z,14.50
2023-03-21T02:01:17.146Z,15.10
2023-03-21T02:03:51.444Z,15.60
2023-03-21T02:06:24.120Z,14.57
2023-03-21T02:08:52.926Z,14.60
2023-03-21T02:11:22.335Z,15.10
2023-03-21T02:13:55.805Z,14.90
2023-03-21T02:16:31.923Z,15.30
2023-03-21T02:19:01.811Z,15.17
2023-03-21T02:22:00.810Z,16.10
2023-03-21T02:25:01.242Z,15.80
2023-03-21T02:27:34.619Z,15.33
2023-03-21T02:30:45.626Z,16.00
2023-03-21T02:33:42.442Z,15.37
2023-03-21T02:36:18.444Z,14.73
2023-03-21T02:38:49.656Z,14.10
2023-03-21T02:41:19.947Z,13.97
2023-03-21T02:43:49.350Z,15.33
2023-03-21T02:46:18.494Z,13.80
2023-03-21T02:48:50.960Z,13.67
2023-03-21T02:51:20.490Z,13.77
2023-03-21T02:54:02.135Z,14.60
2023-03-21T02:56:40.408Z,14.07
2023-03-21T02:59:09.048Z,13.67
2023-03-21T03:01:37.524Z,13.77
2023-03-21T03:04:06.166Z,13.43
2023-03-21T03:06:39.250Z,13.93
2023-03-21T03:09:12.574Z,13.20
2023-03-21T03:11:41.373Z,12.03
2023-03-21T03:14:38.449Z,12.17
2023-03-21T03:17:08.692Z,11.37
2023-03-21T03:19:49.410Z,12.40
2023-03-21T03:22:19.710Z,11.67
2023-03-21T03:24:51.898Z,12.03
2023-03-21T03:27:22.240Z,12.27
2023-03-21T03:29:50.699Z,12.17
2023-03-21T03:32:19.564Z,11.80
2023-03-21T03:34:49.672Z,12.47
2023-03-21T03:37:18.410Z,12.07
2023-03-21T03:39:48.138Z,12.77
2023-03-21T03:42:27.953Z,13.43
2023-03-21T03:44:57.370Z,12.77
2023-03-21T03:47:32.886Z,12.90
2023-03-21T03:50:05.002Z,13.47
2023-03-21T03:52:34.048Z,13.23
2023-03-21T03:55:02.572Z,14.17
2023-03-21T03:57:32.780Z,13.20
2023-03-21T04:00:01.416Z,13.33
2023-03-21T04:02:30.298Z,12.83
2023-03-21T04:04:58.777Z,13.90
2023-03-21T04:07:27.885Z,14.00
2023-03-21T04:09:56.366Z,12.97
2023-03-21T04:12:24.727Z,14.00
2023-03-21T04:14:56.958Z,13.17
2023-03-21T04:17:30.308Z,14.03
2023-03-21T04:20:10.929Z,14.50
2023-03-21T04:22:41.363Z,13.50
2023-03-21T04:25:10.170Z,14.30
2023-03-21T04:27:38.667Z,14.10
2023-03-21T04:30:10.185Z,14.97
2023-03-21T04:32:39.562Z,14.20
2023-03-21T04:35:09.844Z,15.40
2023-03-21T04:37:39.189Z,13.23
2023-03-21T04:40:08.429Z,13.70
2023-03-21T04:42:37.110Z,14.63
2023-03-21T04:45:06.176Z,14.37
2023-03-21T04:47:36.014Z,12.93
2023-03-21T04:50:04.507Z,14.07
2023-03-21T04:52:33.024Z,13.00
2023-03-21T04:55:02.079Z,13.30
2023-03-21T04:57:30.487Z,13.17
2023-03-21T04:59:58.856Z,13.00
2023-03-21T05:02:27.314Z,12.47
2023-03-21T05:04:57.494Z,12.43
2023-03-21T05:07:26.494Z,13.77
2023-03-21T05:09:54.897Z,12.73
2023-03-21T05:12:23.491Z,13.00
2023-03-21T05:14:51.976Z,12.07
2023-03-21T05:17:23.371Z,12.77
2023-03-21T05:19:52.891Z,11.87
2023-03-21T05:22:24.195Z,11.83
2023-03-21T05:24:55.338Z,12.67
2023-03-21T05:27:35.902Z,11.73
2023-03-21T05:30:05.466Z,11.63
2023-03-21T05:32:33.843Z,11.57
2023-03-21T05:35:02.527Z,12.43
2023-03-21T05:37:32.414Z,12.60
2023-03-21T05:40:00.907Z,11.47
2023-03-21T05:42:29.361Z,12.67
2023-03-21T05:44:57.852Z,12.13
2023-03-21T05:47:26.290Z,12.30
2023-03-21T05:49:54.678Z,12.23
2023-03-21T05:52:23.205Z,12.00
2023-03-21T05:54:52.972Z,11.63
2023-03-21T05:57:21.547Z,11.50
2023-03-21T05:59:49.983Z,12.00
2023-03-21T06:02:18.481Z,11.13
2023-03-21T06:04:47.027Z,11.67
2023-03-21T06:07:15.543Z,11.60
2023-03-21T06:09:47.149Z,12.93
2023-03-21T06:12:17.201Z,12.10
2023-03-21T06:14:45.613Z,12.23
2023-03-21T06:17:14.223Z,11.87
2023-03-21T06:19:42.699Z,11.50
2023-03-21T06:22:11.188Z,12.53
2023-03-21T06:24:39.598Z,10.73
2023-03-21T06:27:08.005Z,11.63
2023-03-21T06:29:38.890Z,11.47
2023-03-21T06:32:07.693Z,11.17
2023-03-21T06:34:38.391Z,11.10
2023-03-21T06:37:07.768Z,11.50
2023-03-21T06:39:36.400Z,12.50
2023-03-21T06:42:04.960Z,11.10
2023-03-21T06:44:33.450Z,11.00
2023-03-21T06:47:03.510Z,12.10
2023-03-21T06:49:32.190Z,11.90
2023-03-21T06:52:01.096Z,10.87
2023-03-21T06:54:29.687Z,11.13
2023-03-21T06:56:58.176Z,10.90
2023-03-21T06:59:26.555Z,12.37
2023-03-21T07:01:54.959Z,12.37
2023-03-21T07:04:24.709Z,12.20
2023-03-21T07:06:53.314Z,11.37
2023-03-21T07:09:24.699Z,12.07
2023-03-21T07:11:53.620Z,11.53
2023-03-21T07:14:22.868Z,11.77
2023-03-21T07:16:51.394Z,10.87
2023-03-21T07:19:19.807Z,11.10
2023-03-21T07:21:49.746Z,11.20
2023-03-21T07:24:18.495Z,11.50
2023-03-21T07:26:46.856Z,10.43
2023-03-21T07:29:17.561Z,11.43
2023-03-21T07:31:46.277Z,11.50
2023-03-21T07:34:16.154Z,10.97
2023-03-21T07:36:45.342Z,11.53
2023-03-21T07:39:15.129Z,11.17
2023-03-21T07:41:43.600Z,12.37
2023-03-21T07:44:12.506Z,11.77
2023-03-21T07:46:41.109Z,12.20
2023-03-21T07:49:09.745Z,10.93
2023-03-21T07:51:38.326Z,9.80
2023-03-21T07:54:06.988Z,10.43
2023-03-21T07:56:37.025Z,10.93
2023-03-21T07:59:05.782Z,11.33
2023-03-21T08:01:36.070Z,9.77
2023-03-21T08:04:04.636Z,10.77
2023-03-21T08:06:33.141Z,9.50
2023-03-21T08:09:08.067Z,9.27
2023-03-21T08:11:37.954Z,8.83
2023-03-21T08:14:12.191Z,8.43
2023-03-21T08:16:40.777Z,7.97
2023-03-21T08:19:21.268Z,8.30
2023-03-21T08:21:51.329Z,8.63
2023-03-21T08:24:19.736Z,8.30
2023-03-21T08:26:49.694Z,8.10
2023-03-21T08:29:18.096Z,7.30
2023-03-21T08:31:46.568Z,7.63
2023-03-21T08:34:15.633Z,7.23
2023-03-21T08:36:44.052Z,7.40
2023-03-21T08:39:12.643Z,7.33
2023-03-21T08:41:41.115Z,8.00
2023-03-21T08:44:17.408Z,8.33
2023-03-21T08:46:46.289Z,8.47
2023-03-21T08:49:14.688Z,8.63
2023-03-21T08:51:45.897Z,9.13
2023-03-21T08:54:19.877Z,9.57
2023-03-21T08:56:48.327Z,8.97
2023-03-21T08:59:21.124Z,9.17
2023-03-21T09:01:49.565Z,9.10
2023-03-21T09:04:18.984Z,9.33
2023-03-21T09:06:48.507Z,9.23
2023-03-21T09:09:16.996Z,9.53
2023-03-21T09:11:45.567Z,8.83
2023-03-21T09:14:13.880Z,9.37
2023-03-21T09:16:43.748Z,9.30
2023-03-21T09:19:12.845Z,9.73
2023-03-21T09:21:41.481Z,9.97
2023-03-21T09:24:12.759Z,8.80
2023-03-21T09:26:41.246Z,9.20
2023-03-21T09:29:09.876Z,9.90
2023-03-21T09:31:40.009Z,10.23
2023-03-21T09:34:09.984Z,10.23
2023-03-21T09:36:38.907Z,11.00
2023-03-21T09:39:07.413Z,10.43
2023-03-21T09:41:47.965Z,10.77
2023-03-21T09:44:26.145Z,10.43
2023-03-21T09:46:56.478Z,10.10
2023-03-21T09:49:31.144Z,10.40
2023-03-21T09:52:05.628Z,10.03
2023-03-21T09:54:35.904Z,9.27
2023-03-21T09:57:06.598Z,8.67
2023-03-21T09:59:42.154Z,8.90
2023-03-21T10:02:18.624Z,9.20
2023-03-21T10:04:49.521Z,9.33
2023-03-21T10:07:19.875Z,9.43
2023-03-21T10:09:48.462Z,8.77
2023-03-21T10:12:18.438Z,8.80
2023-03-21T10:14:47.352Z,9.80
2023-03-21T10:17:19.362Z,10.07
2023-03-21T10:19:50.346Z,9.97
2023-03-21T10:22:18.807Z,10.37
2023-03-21T10:24:47.263Z,9.73
2023-03-21T10:27:15.838Z,10.30
2023-03-21T10:29:44.967Z,9.27
2023-03-21T10:32:17.006Z,9.10
2023-03-21T10:37:30.466Z,10.27
2023-03-21T10:40:07.076Z,10.63
2023-03-21T10:42:44.886Z,10.00
2023-03-21T10:45:17.876Z,9.83
2023-03-21T10:47:47.875Z,10.23
2023-03-21T10:50:20.332Z,10.57
2023-03-21T10:52:49.698Z,10.97
2023-03-21T10:55:22.858Z,10.90
2023-03-21T10:57:51.895Z,10.77
2023-03-21T11:00:21.872Z,11.43
2023-03-21T11:02:50.710Z,11.43
2023-03-21T11:05:22.620Z,10.87
2023-03-21T11:07:52.485Z,11.00
2023-03-21T11:10:29.296Z,11.67
2023-03-21T11:12:58.330Z,11.10
2023-03-21T11:15:31.365Z,12.17
2023-03-21T11:18:03.375Z,11.00
2023-03-21T11:20:35.495Z,12.20
2023-03-21T11:23:03.912Z,11.33
2023-03-21T11:25:34.131Z,11.53
2023-03-21T11:28:02.780Z,11.27
2023-03-21T11:30:33.143Z,10.57
2023-03-21T11:33:03.805Z,10.00
2023-03-21T11:35:37.092Z,9.87
2023-03-21T11:38:06.375Z,9.60
2023-03-21T11:40:35.346Z,8.97
2023-03-21T11:43:04.015Z,8.73
2023-03-21T11:45:32.991Z,7.50
2023-03-21T11:48:02.301Z,7.10
2023-03-21T11:50:33.910Z,7.20
2023-03-21T11:53:20.926Z,6.27
2023-03-21T11:55:57.003Z,6.67
2023-03-21T11:58:30.846Z,6.30
2023-03-21T12:01:01.412Z,7.30
2023-03-21T12:03:47.608Z,6.80
2023-03-21T12:06:19.309Z,7.20
2023-03-21T12:08:49.478Z,7.30
2023-03-21T12:11:20.128Z,7.37
2023-03-21T12:13:50.805Z,7.20
2023-03-21T12:16:23.348Z,6.87
2023-03-21T12:18:58.467Z,7.87
2023-03-21T12:21:28.776Z,7.23
2023-03-21T12:24:00.112Z,7.10
2023-03-21T12:26:37.149Z,6.53
2023-03-21T12:29:08.989Z,6.97
2023-03-21T12:31:40.900Z,7.43
2023-03-21T12:34:13.746Z,6.83
2023-03-21T12:36:45.226Z,6.80
2023-03-21T12:39:16.563Z,6.80
2023-03-21T12:41:47.762Z,7.27
2023-03-21T12:44:17.079Z,6.77
2023-03-21T12:46:46.730Z,7.47
2023-03-21T12:49:18.746Z,6.70
2023-03-21T12:51:48.538Z,7.10
2023-03-21T12:54:19.232Z,6.53
2023-03-21T12:56:52.155Z,6.67
2023-03-21T12:59:22.934Z,6.90
2023-03-21T13:01:52.255Z,6.13
2023-03-21T13:04:30.624Z,6.53
2023-03-21T13:06:59.361Z,7.23
2023-03-21T13:09:37.318Z,7.90
2023-03-21T13:12:10.785Z,6.90
2023-03-21T13:14:40.855Z,7.90
2023-03-21T13:17:11.998Z,7.13
2023-03-21T13:19:41.151Z,7.63
2023-03-21T13:22:11.450Z,7.63
2023-03-21T13:24:44.827Z,7.33
2023-03-21T13:27:20.537Z,7.43
2023-03-21T13:29:49.846Z,6.97
2023-03-21T13:32:20.110Z,7.40
2023-03-21T13:34:49.212Z,6.80
2023-03-21T13:37:18.797Z,7.73
2023-03-21T13:39:47.661Z,7.03
2023-03-21T13:42:23.732Z,7.50
2023-03-21T13:44:52.385Z,7.17
2023-03-21T13:47:32.969Z,7.57
2023-03-21T13:50:31.715Z,6.77
2023-03-21T13:53:18.982Z,6.97
2023-03-21T13:55:48.095Z,7.23
2023-03-21T13:58:33.359Z,6.83
2023-03-21T14:01:13.078Z,6.47
2023-03-21T14:03:42.177Z,6.27
2023-03-21T14:06:13.483Z,6.10
2023-03-21T14:08:42.067Z,7.00
2023-03-21T14:11:12.141Z,6.73
2023-03-21T14:13:50.884Z,5.80
2023-03-21T14:16:20.123Z,6.10
2023-03-21T14:18:54.389Z,6.00
2023-03-21T14:21:24.882Z,6.00
2023-03-21T14:24:02.889Z,5.50
2023-03-21T14:26:32.092Z,5.93
2023-03-21T14:29:02.759Z,5.60
2023-03-21T14:31:32.352Z,5.63
2023-03-21T14:34:01.295Z,5.17
2023-03-21T14:36:30.299Z,6.20
2023-03-21T14:39:00.348Z,5.20
2023-03-21T14:41:29.504Z,5.50
2023-03-21T14:44:22.464Z,5.20
2023-03-21T14:46:52.392Z,4.10
2023-03-21T14:49:22.079Z,4.50
2023-03-21T14:51:52.807Z,4.70
2023-03-21T14:54:25.032Z,4.20
2023-03-21T14:56:54.122Z,4.43
2023-03-21T14:59:25.966Z,4.80
2023-03-21T15:01:56.051Z,3.90
2023-03-21T15:04:27.673Z,4.30
2023-03-21T15:06:57.416Z,4.23
2023-03-21T15:09:28.311Z,4.23
2023-03-21T15:11:57.322Z,4.13
2023-03-21T15:14:27.760Z,3.63
2023-03-21T15:16:58.625Z,3.70
2023-03-21T15:19:29.569Z,3.47
2023-03-21T15:21:59.016Z,3.30
2023-03-21T15:24:27.921Z,3.00
2023-03-21T15:26:58.470Z,2.70
2023-03-21T15:29:28.402Z,3.37
2023-03-21T15:31:59.224Z,3.27
2023-03-21T15:34:29.455Z,3.23
2023-03-21T15:36:58.590Z,3.00
2023-03-21T15:39:29.021Z,2.87
2023-03-21T15:42:05.025Z,2.70
2023-03-21T15:44:33.702Z,2.97
2023-03-21T15:47:04.120Z,2.90
2023-03-21T15:49:33.435Z,3.30
2023-03-21T15:52:03.824Z,3.30
2023-03-21T15:54:33.119Z,3.17
2023-03-21T15:57:04.856Z,3.37
2023-03-21T15:59:37.776Z,3.73
2023-03-21T16:02:08.392Z,3.90
2023-03-21T16:04:44.780Z,4.33
2023-03-21T16:07:17.365Z,4.67
2023-03-21T16:09:46.323Z,4.63
2023-03-21T16:12:17.022Z,5.00
2023-03-21T16:14:48.837Z,5.07
2023-03-21T16:17:28.848Z,5.10
2023-03-21T16:19:57.606Z,4.90
2023-03-21T16:22:36.567Z,4.60
2023-03-21T16:25:05.531Z,3.87
2023-03-21T16:27:33.990Z,3.03
2023-03-21T16:30:02.783Z,2.30
2023-03-21T16:32:35.568Z,2.10
2023-03-21T16:35:04.573Z,1.90
2023-03-21T16:37:33.398Z,1.70
2023-03-21T16:40:01.975Z,1.53
2023-03-21T16:42:30.590Z,1.60
2023-03-21T16:44:59.108Z,1.83
2023-03-21T16:47:27.786Z,1.90
2023-03-21T16:49:57.911Z,1.97
2023-03-21T16:52:26.642Z,1.30
2023-03-21T16:54:55.284Z,1.40
2023-03-21T16:57:27.622Z,1.80
2023-03-21T16:59:56.755Z,1.67
2023-03-21T17:02:25.680Z,1.60
2023-03-21T17:04:54.487Z,1.47
2023-03-21T17:07:24.746Z,1.43
2023-03-21T17:09:53.739Z,1.30
2023-03-21T17:12:22.252Z,1.87
2023-03-21T17:14:51.279Z,1.63
2023-03-21T17:17:23.138Z,1.40
2023-03-21T17:19:51.747Z,1.60
2023-03-21T17:22:21.212Z,1.43
2023-03-21T17:24:52.015Z,2.10
2023-03-21T17:27:21.089Z,1.90
2023-03-21T17:29:49.933Z,1.87
2023-03-21T17:32:18.497Z,1.60
2023-03-21T17:34:49.518Z,1.83
2023-03-21T17:37:18.307Z,1.60
2023-03-21T17:39:47.340Z,2.30
2023-03-21T17:42:18.272Z,1.93
2023-03-21T17:44:47.003Z,2.70
2023-03-21T17:47:16.483Z,2.27
2023-03-21T17:49:46.575Z,2.37
2023-03-21T17:52:15.284Z,2.17
2023-03-21T17:54:43.896Z,2.73
2023-03-21T17:57:12.870Z,2.30
2023-03-21T17:59:42.751Z,2.73
2023-03-21T18:02:11.675Z,2.30
2023-03-21T18:04:40.502Z,2.60
2023-03-21T18:07:15.360Z,2.33
2023-03-21T18:09:46.470Z,2.63
2023-03-21T18:12:14.902Z,2.50
2023-03-21T18:14:45.720Z,2.50
2023-03-21T18:17:19.528Z,2.93
2023-03-21T18:19:50.465Z,2.40
2023-03-21T18:22:20.023Z,2.77
2023-03-21T18:24:50.868Z,3.43
2023-03-21T18:27:20.030Z,2.77
2023-03-21T18:30:25.778Z,2.50
2023-03-21T18:32:42.090Z,3.70
2023-03-21T18:35:10.785Z,3.50
2023-03-21T18:37:39.677Z,2.20
2023-03-21T18:40:12.127Z,2.43
2023-03-21T18:42:41.007Z,2.43
2023-03-21T18:45:14.725Z,2.50
2023-03-21T18:47:46.466Z,2.40
2023-03-21T18:50:18.614Z,2.80
2023-03-21T18:52:50.223Z,2.50
2023-03-21T18:55:19.458Z,3.20
2023-03-21T18:57:48.197Z,3.33
2023-03-21T19:00:23.362Z,2.17
2023-03-21T19:03:04.230Z,4.00
2023-03-21T19:05:42.313Z,3.37
2023-03-21T19:08:14.006Z,2.83
2023-03-21T19:10:42.648Z,2.73
2023-03-21T19:13:14.200Z,2.97
2023-03-21T19:15:45.918Z,2.43
2023-03-21T19:21:07.363Z,2.77
2023-03-21T19:24:08.057Z,2.83
2023-03-21T19:26:28.987Z,3.10
2023-03-21T19:28:57.909Z,2.90
2023-03-21T19:31:28.477Z,2.90
2023-03-21T19:33:57.322Z,3.40
2023-03-21T19:36:26.593Z,3.33
2023-03-21T19:38:55.241Z,2.70
2023-03-21T19:41:27.055Z,2.70
2023-03-21T19:43:58.570Z,2.80
2023-03-21T19:46:28.825Z,2.60
2023-03-21T19:48:57.427Z,3.23
2023-03-21T19:51:29.405Z,3.23
2023-03-21T19:53:58.655Z,3.23
2023-03-21T19:56:31.529Z,2.83
2023-03-21T19:59:01.663Z,3.20
2023-03-21T20:01:32.343Z,3.73
2023-03-21T20:04:03.004Z,3.33
2023-03-21T20:06:31.485Z,4.03
2023-03-21T20:11:50.107Z,4.40
2023-03-21T20:14:25.407Z,4.30
2023-03-21T20:17:03.120Z,4.47
2023-03-21T20:19:35.572Z,4.30
2023-03-21T20:22:17.673Z,5.10
2023-03-21T20:24:50.058Z,4.90
2023-03-21T20:27:24.366Z,4.30
2023-03-21T20:30:10.417Z,4.17
2023-03-21T20:32:41.173Z,3.87
2023-03-21T20:35:25.264Z,3.50
2023-03-21T20:38:10.113Z,2.90
2023-03-21T20:40:40.351Z,3.40
2023-03-21T20:43:55.668Z,3.10
2023-03-21T20:46:03.328Z,3.40
2023-03-21T20:48:35.648Z,2.70
2023-03-21T20:51:57.905Z,2.77
2023-03-21T20:54:01.417Z,5.83
2023-03-21T20:56:31.534Z,3.00
2023-03-21T20:59:17.652Z,2.77
2023-03-21T21:02:02.828Z,2.90
2023-03-21T21:04:49.716Z,2.63
2023-03-21T21:07:29.626Z,2.63
2023-03-21T21:10:03.207Z,2.30
2023-03-21T21:12:37.226Z,2.77
2023-03-21T21:15:07.607Z,2.50
2023-03-21T21:20:27.693Z,2.60
2023-03-21T21:22:59.974Z,3.37
2023-03-21T21:25:29.390Z,2.80
2023-03-21T21:28:02.773Z,2.70
2023-03-21T21:30:31.712Z,3.43
2023-03-21T21:33:01.251Z,2.93
2023-03-21T21:35:33.672Z,2.47
2023-03-21T21:38:02.727Z,2.73
2023-03-21T21:40:34.067Z,3.10
2023-03-21T21:43:04.371Z,3.30
2023-03-21T21:45:33.521Z,3.73
2023-03-21T21:48:02.243Z,3.10
2023-03-21T21:50:33.519Z,2.97
2023-03-21T21:53:03.985Z,2.73
2023-03-21T21:55:32.935Z,2.43
2023-03-21T21:58:01.913Z,2.37
2023-03-21T22:00:32.270Z,2.43
2023-03-21T22:03:02.188Z,2.50
2023-03-21T22:05:32.492Z,2.20
2023-03-21T22:08:01.130Z,2.60
2023-03-21T22:10:30.097Z,2.93
2023-03-21T22:13:05.383Z,2.20
2023-03-21T22:15:34.547Z,2.30
2023-03-21T22:18:03.626Z,2.70
2023-03-21T22:20:34.067Z,2.37
2023-03-21T22:23:03.289Z,2.57
2023-03-21T22:25:33.716Z,2.10
2023-03-21T22:28:02.500Z,2.63
2023-03-21T22:30:31.206Z,2.67
2023-03-21T22:33:09.334Z,2.67
2023-03-21T22:35:39.975Z,2.33
2023-03-21T22:38:08.550Z,2.53
2023-03-21T22:40:37.361Z,3.07
2023-03-21T22:43:06.320Z,2.33
2023-03-21T22:45:35.261Z,2.77
2023-03-21T22:48:05.183Z,2.60
2023-03-21T22:50:33.691Z,2.40
2023-03-21T22:53:03.605Z,2.23
2023-03-21T22:55:32.597Z,2.50
2023-03-21T22:58:01.571Z,2.97
2023-03-21T23:00:30.919Z,2.60
2023-03-21T23:03:00.018Z,2.93
2023-03-21T23:05:29.278Z,2.50
2023-03-21T23:07:57.721Z,2.27
2023-03-21T23:10:28.000Z,3.23
2023-03-21T23:12:57.040Z,3.93
2023-03-21T23:15:25.501Z,2.40
2023-03-21T23:17:54.100Z,2.53
2023-03-21T23:20:22.956Z,2.83
2023-03-21T23:22:51.825Z,3.30
2023-03-21T23:25:22.242Z,3.30
2023-03-21T23:27:52.017Z,3.60
2023-03-21T23:30:20.668Z,2.60
2023-03-21T23:32:49.239Z,2.83
2023-03-21T23:35:18.268Z,2.03
2023-03-21T23:37:50.166Z,3.27
2023-03-21T23:40:18.818Z,3.27
2023-03-21T23:42:47.381Z,3.17
2023-03-21T23:45:17.182Z,2.50
2023-03-21T23:47:45.821Z,2.73
2023-03-21T23:50:14.850Z,3.20
2023-03-21T23:52:44.726Z,3.17
2023-03-21T23:55:13.514Z,3.30
2023-03-21T23:57:43.975Z,3.10
